sensor_id;sensor_type;location;lat;lon;timestamp;temperature;humidity
41324;DHT22;27073;51.128;4.220;2022-12-01T00:00:40;6.60;99.90
41324;DHT22;27073;51.128;4.220;2022-12-01T00:03:05;6.40;99.90
41324;DHT22;27073;51.128;4.220;2022-12-01T00:05:31;6.40;99.90
41324;DHT22;27073;51.128;4.220;2022-12-01T00:07:57;6.40;99.90
41324;DHT22;27073;51.128;4.220;2022-12-01T00:10:24;6.50;99.90
41324;DHT22;27073;51.128;4.220;2022-12-01T00:12:57;6.40;99.90
41324;DHT22;27073;51.128;4.220;2022-12-01T00:15:29;6.40;99.90
41324;DHT22;27073;51.128;4.220;2022-12-01T00:17:56;6.40;99.90
41324;DHT22;27073;51.128;4.220;2022-12-01T00:20:22;6.40;99.90
41324;DHT22;27073;51.128;4.220;2022-12-01T00:22:48;6.40;99.90
41324;DHT22;27073;51.128;4.220;2022-12-01T00:25:16;6.50;99.90
41324;DHT22;27073;51.128;4.220;2022-12-01T00:27:42;6.50;99.90
41324;DHT22;27073;51.128;4.220;2022-12-01T00:30:10;6.50;99.90
41324;DHT22;27073;51.128;4.220;2022-12-01T00:32:36;6.60;99.90
41324;DHT22;27073;51.128;4.220;2022-12-01T00:35:04;6.70;99.90
41324;DHT22;27073;51.128;4.220;2022-12-01T00:37:30;6.80;99.90
41324;DHT22;27073;51.128;4.220;2022-12-01T00:39:57;6.80;99.90
41324;DHT22;27073;51.128;4.220;2022-12-01T00:42:23;6.80;99.90
41324;DHT22;27073;51.128;4.220;2022-12-01T00:44:49;6.80;99.90
41324;DHT22;27073;51.128;4.220;2022-12-01T00:47:15;6.70;99.90
41324;DHT22;27073;51.128;4.220;2022-12-01T00:49:41;6.70;99.90
41324;DHT22;27073;51.128;4.220;2022-12-01T00:52:06;6.80;99.90
41324;DHT22;27073;51.128;4.220;2022-12-01T00:54:32;6.80;99.90
41324;DHT22;27073;51.128;4.220;2022-12-01T00:56:59;6.90;99.90
41324;DHT22;27073;51.128;4.220;2022-12-01T00:59:25;7.10;99.90
41324;DHT22;27073;51.128;4.220;2022-12-01T01:01:51;7.10;99.90
41324;DHT22;27073;51.128;4.220;2022-12-01T01:04:17;7.10;99.90
41324;DHT22;27073;51.128;4.220;2022-12-01T01:06:43;7.30;99.90
41324;DHT22;27073;51.128;4.220;2022-12-01T01:09:09;7.30;99.90
41324;DHT22;27073;51.128;4.220;2022-12-01T01:11:35;7.30;99.90
41324;DHT22;27073;51.128;4.220;2022-12-01T01:14:01;7.40;99.90
41324;DHT22;27073;51.128;4.220;2022-12-01T01:16:27;7.30;99.90
41324;DHT22;27073;51.128;4.220;2022-12-01T01:18:53;7.40;99.90
41324;DHT22;27073;51.128;4.220;2022-12-01T01:21:21;7.30;99.90
41324;DHT22;27073;51.128;4.220;2022-12-01T01:23:48;7.30;99.90
41324;DHT22;27073;51.128;4.220;2022-12-01T01:26:20;7.20;99.90
41324;DHT22;27073;51.128;4.220;2022-12-01T01:28:46;7.20;99.90
41324;DHT22;27073;51.128;4.220;2022-12-01T01:31:16;7.30;99.90
41324;DHT22;27073;51.128;4.220;2022-12-01T01:33:42;7.40;99.90
41324;DHT22;27073;51.128;4.220;2022-12-01T01:36:08;7.40;99.90
41324;DHT22;27073;51.128;4.220;2022-12-01T01:38:35;7.20;99.90
41324;DHT22;27073;51.128;4.220;2022-12-01T01:41:01;7.30;99.90
41324;DHT22;27073;51.128;4.220;2022-12-01T01:43:57;7.00;99.90
41324;DHT22;27073;51.128;4.220;2022-12-01T01:46:33;7.10;99.90
41324;DHT22;27073;51.128;4.220;2022-12-01T01:49:08;7.20;99.90
41324;DHT22;27073;51.128;4.220;2022-12-01T01:54:22;7.40;99.90
41324;DHT22;27073;51.128;4.220;2022-12-01T01:56:51;7.50;99.90
41324;DHT22;27073;51.128;4.220;2022-12-01T01:59:24;7.50;99.90
41324;DHT22;27073;51.128;4.220;2022-12-01T02:02:03;7.60;99.90
41324;DHT22;27073;51.128;4.220;2022-12-01T02:04:32;7.60;99.90
41324;DHT22;27073;51.128;4.220;2022-12-01T02:06:59;7.60;99.90
41324;DHT22;27073;51.128;4.220;2022-12-01T02:09:24;7.70;99.90
41324;DHT22;27073;51.128;4.220;2022-12-01T02:14:30;7.80;99.90
41324;DHT22;27073;51.128;4.220;2022-12-01T02:17:09;7.70;99.90
41324;DHT22;27073;51.128;4.220;2022-12-01T02:25:24;7.80;99.90
41324;DHT22;27073;51.128;4.220;2022-12-01T02:28:12;7.80;99.90
41324;DHT22;27073;51.128;4.220;2022-12-01T02:33:15;7.80;99.90
41324;DHT22;27073;51.128;4.220;2022-12-01T02:35:45;7.90;99.90
41324;DHT22;27073;51.128;4.220;2022-12-01T02:43:32;7.90;99.90
41324;DHT22;27073;51.128;4.220;2022-12-01T02:46:17;7.90;99.90
41324;DHT22;27073;51.128;4.220;2022-12-01T02:48:48;7.90;99.90
41324;DHT22;27073;51.128;4.220;2022-12-01T02:51:23;7.90;99.90
41324;DHT22;27073;51.128;4.220;2022-12-01T02:53:50;7.90;99.90
41324;DHT22;27073;51.128;4.220;2022-12-01T02:56:20;7.90;99.90
41324;DHT22;27073;51.128;4.220;2022-12-01T02:58:47;7.70;99.90
41324;DHT22;27073;51.128;4.220;2022-12-01T03:04:15;7.80;99.90
41324;DHT22;27073;51.128;4.220;2022-12-01T03:07:02;7.90;99.90
41324;DHT22;27073;51.128;4.220;2022-12-01T03:15:25;8.00;99.90
41324;DHT22;27073;51.128;4.220;2022-12-01T03:23:23;8.00;99.90
41324;DHT22;27073;51.128;4.220;2022-12-01T03:25:52;8.00;99.90
41324;DHT22;27073;51.128;4.220;2022-12-01T03:28:23;7.70;99.90
41324;DHT22;27073;51.128;4.220;2022-12-01T03:30:56;7.70;99.90
41324;DHT22;27073;51.128;4.220;2022-12-01T03:33:32;7.80;99.90
41324;DHT22;27073;51.128;4.220;2022-12-01T03:36:44;7.50;99.90
41324;DHT22;27073;51.128;4.220;2022-12-01T03:39:07;7.40;99.90
41324;DHT22;27073;51.128;4.220;2022-12-01T03:41:40;7.40;99.90
41324;DHT22;27073;51.128;4.220;2022-12-01T03:44:12;7.30;99.90
41324;DHT22;27073;51.128;4.220;2022-12-01T03:46:53;7.30;99.90
41324;DHT22;27073;51.128;4.220;2022-12-01T03:49:21;7.20;99.90
41324;DHT22;27073;51.128;4.220;2022-12-01T03:55:08;7.40;99.90
41324;DHT22;27073;51.128;4.220;2022-12-01T04:00:12;7.40;99.90
41324;DHT22;27073;51.128;4.220;2022-12-01T04:02:39;7.40;99.90
41324;DHT22;27073;51.128;4.220;2022-12-01T04:05:06;7.40;99.90
41324;DHT22;27073;51.128;4.220;2022-12-01T04:07:34;7.50;99.90
41324;DHT22;27073;51.128;4.220;2022-12-01T04:10:00;7.50;99.90
41324;DHT22;27073;51.128;4.220;2022-12-01T04:12:26;7.50;99.90
41324;DHT22;27073;51.128;4.220;2022-12-01T04:14:59;7.40;99.90
41324;DHT22;27073;51.128;4.220;2022-12-01T04:17:26;7.40;99.90
41324;DHT22;27073;51.128;4.220;2022-12-01T04:19:52;7.30;99.90
41324;DHT22;27073;51.128;4.220;2022-12-01T04:22:18;7.20;99.90
41324;DHT22;27073;51.128;4.220;2022-12-01T04:24:44;7.30;99.90
41324;DHT22;27073;51.128;4.220;2022-12-01T04:27:10;7.30;99.90
41324;DHT22;27073;51.128;4.220;2022-12-01T04:29:36;7.30;99.90
41324;DHT22;27073;51.128;4.220;2022-12-01T04:32:02;7.40;99.90
41324;DHT22;27073;51.128;4.220;2022-12-01T04:34:28;7.40;99.90
41324;DHT22;27073;51.128;4.220;2022-12-01T04:36:53;7.40;99.90
41324;DHT22;27073;51.128;4.220;2022-12-01T04:39:19;7.30;99.90
41324;DHT22;27073;51.128;4.220;2022-12-01T04:41:45;7.40;99.90
41324;DHT22;27073;51.128;4.220;2022-12-01T04:44:11;7.40;99.90
41324;DHT22;27073;51.128;4.220;2022-12-01T04:46:37;7.40;99.90
41324;DHT22;27073;51.128;4.220;2022-12-01T04:49:03;7.50;99.90
41324;DHT22;27073;51.128;4.220;2022-12-01T04:51:29;7.40;99.90
41324;DHT22;27073;51.128;4.220;2022-12-01T04:53:55;7.40;99.90
41324;DHT22;27073;51.128;4.220;2022-12-01T04:56:21;7.40;99.90
41324;DHT22;27073;51.128;4.220;2022-12-01T04:58:47;7.50;99.90
41324;DHT22;27073;51.128;4.220;2022-12-01T05:01:15;7.40;99.90
41324;DHT22;27073;51.128;4.220;2022-12-01T05:03:44;7.40;99.90
41324;DHT22;27073;51.128;4.220;2022-12-01T05:06:12;7.40;99.90
41324;DHT22;27073;51.128;4.220;2022-12-01T05:08:38;7.40;99.90
41324;DHT22;27073;51.128;4.220;2022-12-01T05:11:05;7.50;99.90
41324;DHT22;27073;51.128;4.220;2022-12-01T05:13:33;7.50;99.90
41324;DHT22;27073;51.128;4.220;2022-12-01T05:16:09;7.50;99.90
41324;DHT22;27073;51.128;4.220;2022-12-01T05:18:35;7.60;99.90
41324;DHT22;27073;51.128;4.220;2022-12-01T05:21:01;7.60;99.90
41324;DHT22;27073;51.128;4.220;2022-12-01T05:23:30;7.60;99.90
41324;DHT22;27073;51.128;4.220;2022-12-01T05:25:56;7.50;99.90
41324;DHT22;27073;51.128;4.220;2022-12-01T05:28:23;7.60;99.90
41324;DHT22;27073;51.128;4.220;2022-12-01T05:30:49;7.50;99.90
41324;DHT22;27073;51.128;4.220;2022-12-01T05:33:15;7.40;99.90
41324;DHT22;27073;51.128;4.220;2022-12-01T05:35:41;7.30;99.90
41324;DHT22;27073;51.128;4.220;2022-12-01T05:38:08;7.40;99.90
41324;DHT22;27073;51.128;4.220;2022-12-01T05:40:34;7.20;99.90
41324;DHT22;27073;51.128;4.220;2022-12-01T05:43:00;7.20;99.90
41324;DHT22;27073;51.128;4.220;2022-12-01T05:45:26;7.30;99.90
41324;DHT22;27073;51.128;4.220;2022-12-01T05:47:59;7.40;99.90
41324;DHT22;27073;51.128;4.220;2022-12-01T05:50:26;7.30;99.90
41324;DHT22;27073;51.128;4.220;2022-12-01T05:52:54;7.30;99.90
41324;DHT22;27073;51.128;4.220;2022-12-01T05:55:20;7.40;99.90
41324;DHT22;27073;51.128;4.220;2022-12-01T05:57:46;7.30;99.90
41324;DHT22;27073;51.128;4.220;2022-12-01T06:00:13;7.40;99.90
41324;DHT22;27073;51.128;4.220;2022-12-01T06:02:39;7.40;99.90
41324;DHT22;27073;51.128;4.220;2022-12-01T06:05:06;7.30;99.90
41324;DHT22;27073;51.128;4.220;2022-12-01T06:07:32;7.40;99.90
41324;DHT22;27073;51.128;4.220;2022-12-01T06:10:01;7.40;99.90
41324;DHT22;27073;51.128;4.220;2022-12-01T06:12:27;7.50;99.90
41324;DHT22;27073;51.128;4.220;2022-12-01T06:14:53;7.60;99.90
41324;DHT22;27073;51.128;4.220;2022-12-01T06:17:18;7.70;99.90
41324;DHT22;27073;51.128;4.220;2022-12-01T06:19:44;7.70;99.90
41324;DHT22;27073;51.128;4.220;2022-12-01T06:22:11;7.80;99.90
41324;DHT22;27073;51.128;4.220;2022-12-01T06:24:38;7.80;99.90
41324;DHT22;27073;51.128;4.220;2022-12-01T06:27:04;7.70;99.90
41324;DHT22;27073;51.128;4.220;2022-12-01T06:29:29;7.80;99.90
41324;DHT22;27073;51.128;4.220;2022-12-01T06:31:55;7.80;99.90
41324;DHT22;27073;51.128;4.220;2022-12-01T06:34:21;7.80;99.90
41324;DHT22;27073;51.128;4.220;2022-12-01T06:36:47;7.80;99.90
41324;DHT22;27073;51.128;4.220;2022-12-01T06:39:14;7.90;99.90
41324;DHT22;27073;51.128;4.220;2022-12-01T06:41:41;8.00;99.90
41324;DHT22;27073;51.128;4.220;2022-12-01T06:44:07;8.10;99.90
41324;DHT22;27073;51.128;4.220;2022-12-01T06:46:33;8.00;99.90
41324;DHT22;27073;51.128;4.220;2022-12-01T06:48:58;8.00;99.90
41324;DHT22;27073;51.128;4.220;2022-12-01T06:51:24;7.80;99.90
41324;DHT22;27073;51.128;4.220;2022-12-01T06:53:53;7.70;99.90
41324;DHT22;27073;51.128;4.220;2022-12-01T06:56:19;7.70;99.90
41324;DHT22;27073;51.128;4.220;2022-12-01T06:58:47;7.70;99.90
41324;DHT22;27073;51.128;4.220;2022-12-01T07:01:13;7.70;99.90
41324;DHT22;27073;51.128;4.220;2022-12-01T07:03:39;7.70;99.90
41324;DHT22;27073;51.128;4.220;2022-12-01T07:06:05;7.70;99.90
41324;DHT22;27073;51.128;4.220;2022-12-01T07:08:31;7.60;99.90
41324;DHT22;27073;51.128;4.220;2022-12-01T07:11:06;7.70;99.90
41324;DHT22;27073;51.128;4.220;2022-12-01T07:13:33;7.70;99.90
41324;DHT22;27073;51.128;4.220;2022-12-01T07:15:59;7.60;99.90
41324;DHT22;27073;51.128;4.220;2022-12-01T07:18:25;7.60;99.90
41324;DHT22;27073;51.128;4.220;2022-12-01T07:20:51;7.60;99.90
41324;DHT22;27073;51.128;4.220;2022-12-01T07:23:17;7.60;99.90
41324;DHT22;27073;51.128;4.220;2022-12-01T07:25:42;7.60;99.90
41324;DHT22;27073;51.128;4.220;2022-12-01T07:28:08;7.70;99.90
41324;DHT22;27073;51.128;4.220;2022-12-01T07:30:34;7.70;99.90
41324;DHT22;27073;51.128;4.220;2022-12-01T07:32:59;7.60;99.90
41324;DHT22;27073;51.128;4.220;2022-12-01T07:35:25;7.70;99.90
41324;DHT22;27073;51.128;4.220;2022-12-01T07:37:55;7.70;99.90
41324;DHT22;27073;51.128;4.220;2022-12-01T07:40:21;7.70;99.90
41324;DHT22;27073;51.128;4.220;2022-12-01T07:42:47;7.80;99.90
41324;DHT22;27073;51.128;4.220;2022-12-01T07:45:13;7.90;99.90
41324;DHT22;27073;51.128;4.220;2022-12-01T07:47:38;7.90;99.90
41324;DHT22;27073;51.128;4.220;2022-12-01T07:50:05;8.00;99.90
41324;DHT22;27073;51.128;4.220;2022-12-01T07:52:30;8.00;99.90
41324;DHT22;27073;51.128;4.220;2022-12-01T07:54:56;8.00;99.90
41324;DHT22;27073;51.128;4.220;2022-12-01T07:57:22;8.10;99.90
41324;DHT22;27073;51.128;4.220;2022-12-01T07:59:48;8.00;99.90
41324;DHT22;27073;51.128;4.220;2022-12-01T08:02:14;8.00;99.90
41324;DHT22;27073;51.128;4.220;2022-12-01T08:04:39;8.00;99.90
41324;DHT22;27073;51.128;4.220;2022-12-01T08:07:05;8.10;99.90
41324;DHT22;27073;51.128;4.220;2022-12-01T08:09:31;8.10;99.90
41324;DHT22;27073;51.128;4.220;2022-12-01T08:11:56;8.10;99.90
41324;DHT22;27073;51.128;4.220;2022-12-01T08:14:22;8.10;99.90
41324;DHT22;27073;51.128;4.220;2022-12-01T08:16:48;8.10;99.90
41324;DHT22;27073;51.128;4.220;2022-12-01T08:19:14;8.10;99.90
41324;DHT22;27073;51.128;4.220;2022-12-01T08:21:39;8.20;99.90
41324;DHT22;27073;51.128;4.220;2022-12-01T08:24:06;8.20;99.90
41324;DHT22;27073;51.128;4.220;2022-12-01T08:26:32;8.20;99.90
41324;DHT22;27073;51.128;4.220;2022-12-01T08:28:57;8.20;99.90
41324;DHT22;27073;51.128;4.220;2022-12-01T08:31:26;8.10;99.90
41324;DHT22;27073;51.128;4.220;2022-12-01T08:33:52;8.10;99.90
41324;DHT22;27073;51.128;4.220;2022-12-01T08:36:20;8.10;99.90
41324;DHT22;27073;51.128;4.220;2022-12-01T08:38:48;8.10;99.90
41324;DHT22;27073;51.128;4.220;2022-12-01T08:41:14;8.20;99.90
41324;DHT22;27073;51.128;4.220;2022-12-01T08:43:40;8.20;99.90
41324;DHT22;27073;51.128;4.220;2022-12-01T08:46:12;8.30;99.90
41324;DHT22;27073;51.128;4.220;2022-12-01T08:48:38;8.30;99.90
41324;DHT22;27073;51.128;4.220;2022-12-01T08:51:07;8.40;99.90
41324;DHT22;27073;51.128;4.220;2022-12-01T08:53:35;8.40;99.90
41324;DHT22;27073;51.128;4.220;2022-12-01T08:56:07;8.50;99.90
41324;DHT22;27073;51.128;4.220;2022-12-01T08:58:33;8.50;99.90
41324;DHT22;27073;51.128;4.220;2022-12-01T09:01:04;8.50;99.90
41324;DHT22;27073;51.128;4.220;2022-12-01T09:03:30;8.50;99.90
41324;DHT22;27073;51.128;4.220;2022-12-01T09:06:08;8.50;99.90
41324;DHT22;27073;51.128;4.220;2022-12-01T09:08:35;8.50;99.90
41324;DHT22;27073;51.128;4.220;2022-12-01T09:11:06;8.50;99.90
41324;DHT22;27073;51.128;4.220;2022-12-01T09:13:34;8.50;99.90
41324;DHT22;27073;51.128;4.220;2022-12-01T09:16:06;8.60;99.90
41324;DHT22;27073;51.128;4.220;2022-12-01T09:18:33;8.50;99.90
41324;DHT22;27073;51.128;4.220;2022-12-01T09:20:59;8.60;99.90
41324;DHT22;27073;51.128;4.220;2022-12-01T09:23:25;8.50;99.90
41324;DHT22;27073;51.128;4.220;2022-12-01T09:25:52;8.50;99.90
41324;DHT22;27073;51.128;4.220;2022-12-01T09:28:17;8.60;99.90
41324;DHT22;27073;51.128;4.220;2022-12-01T09:30:45;8.70;99.90
41324;DHT22;27073;51.128;4.220;2022-12-01T09:33:12;8.70;99.90
41324;DHT22;27073;51.128;4.220;2022-12-01T09:35:38;8.60;99.90
41324;DHT22;27073;51.128;4.220;2022-12-01T09:38:04;8.50;99.90
41324;DHT22;27073;51.128;4.220;2022-12-01T09:40:36;8.60;99.90
41324;DHT22;27073;51.128;4.220;2022-12-01T09:43:09;8.60;99.90
41324;DHT22;27073;51.128;4.220;2022-12-01T09:45:40;8.60;99.90
41324;DHT22;27073;51.128;4.220;2022-12-01T09:48:18;8.50;99.90
41324;DHT22;27073;51.128;4.220;2022-12-01T09:50:45;8.50;99.90
41324;DHT22;27073;51.128;4.220;2022-12-01T09:53:14;8.50;99.90
41324;DHT22;27073;51.128;4.220;2022-12-01T09:55:41;8.50;99.90
41324;DHT22;27073;51.128;4.220;2022-12-01T09:58:18;8.60;99.90
41324;DHT22;27073;51.128;4.220;2022-12-01T10:00:46;8.70;99.90
41324;DHT22;27073;51.128;4.220;2022-12-01T10:03:40;8.70;99.90
41324;DHT22;27073;51.128;4.220;2022-12-01T10:06:37;8.80;99.90
41324;DHT22;27073;51.128;4.220;2022-12-01T10:09:28;8.80;99.90
41324;DHT22;27073;51.128;4.220;2022-12-01T10:12:13;8.80;99.90
41324;DHT22;27073;51.128;4.220;2022-12-01T10:14:39;8.80;99.90
41324;DHT22;27073;51.128;4.220;2022-12-01T10:25:11;8.70;99.90
41324;DHT22;27073;51.128;4.220;2022-12-01T10:30:49;8.90;99.90
41324;DHT22;27073;51.128;4.220;2022-12-01T10:33:25;9.00;99.90
41324;DHT22;27073;51.128;4.220;2022-12-01T10:35:54;9.00;99.90
41324;DHT22;27073;51.128;4.220;2022-12-01T10:38:24;9.00;99.90
41324;DHT22;27073;51.128;4.220;2022-12-01T10:40:52;8.90;99.90
41324;DHT22;27073;51.128;4.220;2022-12-01T10:43:22;8.90;99.90
41324;DHT22;27073;51.128;4.220;2022-12-01T10:45:49;8.90;99.90
41324;DHT22;27073;51.128;4.220;2022-12-01T10:48:21;8.70;99.90
41324;DHT22;27073;51.128;4.220;2022-12-01T10:50:55;8.70;99.90
41324;DHT22;27073;51.128;4.220;2022-12-01T10:53:32;8.70;99.90
41324;DHT22;27073;51.128;4.220;2022-12-01T10:56:19;8.70;99.90
41324;DHT22;27073;51.128;4.220;2022-12-01T10:58:54;8.70;99.90
41324;DHT22;27073;51.128;4.220;2022-12-01T11:01:24;8.70;99.90
41324;DHT22;27073;51.128;4.220;2022-12-01T11:06:30;8.90;99.90
41324;DHT22;27073;51.128;4.220;2022-12-01T11:08:59;8.90;99.90
41324;DHT22;27073;51.128;4.220;2022-12-01T11:11:32;8.90;99.90
41324;DHT22;27073;51.128;4.220;2022-12-01T11:14:01;9.00;99.90
41324;DHT22;27073;51.128;4.220;2022-12-01T11:16:37;9.00;99.90
41324;DHT22;27073;51.128;4.220;2022-12-01T11:19:18;8.90;99.90
41324;DHT22;27073;51.128;4.220;2022-12-01T11:21:51;9.00;99.90
41324;DHT22;27073;51.128;4.220;2022-12-01T11:24:39;9.00;99.90
41324;DHT22;27073;51.128;4.220;2022-12-01T11:27:24;8.90;99.90
41324;DHT22;27073;51.128;4.220;2022-12-01T11:29:54;8.90;99.90
41324;DHT22;27073;51.128;4.220;2022-12-01T11:32:27;8.90;99.90
41324;DHT22;27073;51.128;4.220;2022-12-01T11:35:13;8.90;99.90
41324;DHT22;27073;51.128;4.220;2022-12-01T11:37:46;8.90;99.80
41324;DHT22;27073;51.128;4.220;2022-12-01T11:40:21;9.00;99.70
41324;DHT22;27073;51.128;4.220;2022-12-01T11:43:03;9.00;98.60
41324;DHT22;27073;51.128;4.220;2022-12-01T11:45:36;8.90;97.90
41324;DHT22;27073;51.128;4.220;2022-12-01T11:50:34;9.00;98.20
41324;DHT22;27073;51.128;4.220;2022-12-01T11:53:01;9.10;98.00
41324;DHT22;27073;51.128;4.220;2022-12-01T11:55:28;9.20;96.60
41324;DHT22;27073;51.128;4.220;2022-12-01T11:58:02;9.20;95.80
41324;DHT22;27073;51.128;4.220;2022-12-01T12:00:44;9.30;95.60
41324;DHT22;27073;51.128;4.220;2022-12-01T12:03:31;9.10;95.20
41324;DHT22;27073;51.128;4.220;2022-12-01T12:06:15;9.20;95.40
41324;DHT22;27073;51.128;4.220;2022-12-01T12:11:18;9.30;95.70
41324;DHT22;27073;51.128;4.220;2022-12-01T12:14:18;9.10;95.50
41324;DHT22;27073;51.128;4.220;2022-12-01T12:16:56;9.20;95.90
41324;DHT22;27073;51.128;4.220;2022-12-01T12:28:03;9.70;94.70
41324;DHT22;27073;51.128;4.220;2022-12-01T12:30:43;9.60;94.30
41324;DHT22;27073;51.128;4.220;2022-12-01T12:33:39;9.60;94.60
41324;DHT22;27073;51.128;4.220;2022-12-01T12:36:36;9.70;94.60
41324;DHT22;27073;51.128;4.220;2022-12-01T12:39:34;9.60;94.70
41324;DHT22;27073;51.128;4.220;2022-12-01T12:42:17;9.60;95.10
41324;DHT22;27073;51.128;4.220;2022-12-01T12:44:48;9.50;94.70
41324;DHT22;27073;51.128;4.220;2022-12-01T12:52:50;9.50;95.00
41324;DHT22;27073;51.128;4.220;2022-12-01T12:57:56;9.40;95.00
41324;DHT22;27073;51.128;4.220;2022-12-01T13:00:27;9.50;95.40
41324;DHT22;27073;51.128;4.220;2022-12-01T13:03:22;9.50;95.30
41324;DHT22;27073;51.128;4.220;2022-12-01T13:08:48;9.90;93.40
41324;DHT22;27073;51.128;4.220;2022-12-01T13:11:22;10.10;92.60
41324;DHT22;27073;51.128;4.220;2022-12-01T13:14:05;10.20;91.60
41324;DHT22;27073;51.128;4.220;2022-12-01T13:16:38;10.40;91.50
41324;DHT22;27073;51.128;4.220;2022-12-01T13:19:26;10.50;90.10
41324;DHT22;27073;51.128;4.220;2022-12-01T13:21:54;10.50;90.20
41324;DHT22;27073;51.128;4.220;2022-12-01T13:24:22;10.50;88.10
41324;DHT22;27073;51.128;4.220;2022-12-01T13:27:02;10.60;85.50
41324;DHT22;27073;51.128;4.220;2022-12-01T13:29:35;10.80;83.90
41324;DHT22;27073;51.128;4.220;2022-12-01T13:32:03;10.90;80.40
41324;DHT22;27073;51.128;4.220;2022-12-01T13:34:38;10.80;76.20
41324;DHT22;27073;51.128;4.220;2022-12-01T13:37:06;10.60;80.30
41324;DHT22;27073;51.128;4.220;2022-12-01T13:39:35;10.50;81.00
41324;DHT22;27073;51.128;4.220;2022-12-01T13:42:07;10.70;75.90
41324;DHT22;27073;51.128;4.220;2022-12-01T13:44:40;10.70;74.20
41324;DHT22;27073;51.128;4.220;2022-12-01T13:47:31;10.90;74.10
41324;DHT22;27073;51.128;4.220;2022-12-01T13:49:56;11.00;72.30
41324;DHT22;27073;51.128;4.220;2022-12-01T13:52:49;10.80;68.90
41324;DHT22;27073;51.128;4.220;2022-12-01T13:57:47;11.00;69.50
41324;DHT22;27073;51.128;4.220;2022-12-01T14:00:21;11.10;68.50
41324;DHT22;27073;51.128;4.220;2022-12-01T14:05:50;11.30;62.20
41324;DHT22;27073;51.128;4.220;2022-12-01T14:08:33;11.20;59.60
41324;DHT22;27073;51.128;4.220;2022-12-01T14:11:19;11.20;61.40
41324;DHT22;27073;51.128;4.220;2022-12-01T14:13:56;11.20;59.80
41324;DHT22;27073;51.128;4.220;2022-12-01T14:16:23;11.00;60.10
41324;DHT22;27073;51.128;4.220;2022-12-01T14:18:55;11.00;60.90
41324;DHT22;27073;51.128;4.220;2022-12-01T14:21:42;10.90;63.30
41324;DHT22;27073;51.128;4.220;2022-12-01T14:24:21;10.90;61.00
41324;DHT22;27073;51.128;4.220;2022-12-01T14:26:48;11.00;61.60
41324;DHT22;27073;51.128;4.220;2022-12-01T14:29:31;11.00;62.10
41324;DHT22;27073;51.128;4.220;2022-12-01T14:34:28;10.80;57.50
41324;DHT22;27073;51.128;4.220;2022-12-01T14:39:56;10.60;60.10
41324;DHT22;27073;51.128;4.220;2022-12-01T14:45:15;10.80;61.20
41324;DHT22;27073;51.128;4.220;2022-12-01T14:47:46;10.60;61.40
41324;DHT22;27073;51.128;4.220;2022-12-01T14:50:19;10.70;60.40
41324;DHT22;27073;51.128;4.220;2022-12-01T14:53:05;10.70;60.50
41324;DHT22;27073;51.128;4.220;2022-12-01T14:55:40;10.60;63.30
41324;DHT22;27073;51.128;4.220;2022-12-01T14:58:17;10.50;62.40
41324;DHT22;27073;51.128;4.220;2022-12-01T15:01:08;10.50;63.10
41324;DHT22;27073;51.128;4.220;2022-12-01T15:06:02;10.50;60.90
41324;DHT22;27073;51.128;4.220;2022-12-01T15:08:29;10.50;60.10
41324;DHT22;27073;51.128;4.220;2022-12-01T15:11:00;10.40;62.70
41324;DHT22;27073;51.128;4.220;2022-12-01T15:13:46;10.40;62.90
41324;DHT22;27073;51.128;4.220;2022-12-01T15:16:18;10.20;68.00
41324;DHT22;27073;51.128;4.220;2022-12-01T15:18:46;10.30;67.80
41324;DHT22;27073;51.128;4.220;2022-12-01T15:24:03;10.40;66.80
41324;DHT22;27073;51.128;4.220;2022-12-01T15:26:45;10.40;66.90
41324;DHT22;27073;51.128;4.220;2022-12-01T15:29:15;10.40;67.50
41324;DHT22;27073;51.128;4.220;2022-12-01T15:31:44;10.40;67.80
41324;DHT22;27073;51.128;4.220;2022-12-01T15:34:16;10.40;68.90
41324;DHT22;27073;51.128;4.220;2022-12-01T15:36:43;10.30;68.70
41324;DHT22;27073;51.128;4.220;2022-12-01T15:39:14;10.10;72.80
41324;DHT22;27073;51.128;4.220;2022-12-01T15:41:42;10.00;77.10
41324;DHT22;27073;51.128;4.220;2022-12-01T15:44:34;9.80;80.90
41324;DHT22;27073;51.128;4.220;2022-12-01T15:47:29;9.60;84.90
41324;DHT22;27073;51.128;4.220;2022-12-01T15:49:56;9.50;86.10
41324;DHT22;27073;51.128;4.220;2022-12-01T15:52:22;9.60;86.50
41324;DHT22;27073;51.128;4.220;2022-12-01T15:54:48;9.40;87.80
41324;DHT22;27073;51.128;4.220;2022-12-01T15:57:19;9.40;87.90
41324;DHT22;27073;51.128;4.220;2022-12-01T15:59:52;9.30;89.20
41324;DHT22;27073;51.128;4.220;2022-12-01T16:04:44;9.20;90.40
41324;DHT22;27073;51.128;4.220;2022-12-01T16:07:11;9.30;90.70
41324;DHT22;27073;51.128;4.220;2022-12-01T16:09:42;9.30;90.70
41324;DHT22;27073;51.128;4.220;2022-12-01T16:12:18;9.20;91.10
41324;DHT22;27073;51.128;4.220;2022-12-01T16:15:04;9.20;91.80
41324;DHT22;27073;51.128;4.220;2022-12-01T16:17:51;9.30;91.50
41324;DHT22;27073;51.128;4.220;2022-12-01T16:22:50;9.50;88.80
41324;DHT22;27073;51.128;4.220;2022-12-01T16:25:20;9.50;88.40
41324;DHT22;27073;51.128;4.220;2022-12-01T16:27:51;9.40;88.70
41324;DHT22;27073;51.128;4.220;2022-12-01T16:30:25;9.40;89.10
41324;DHT22;27073;51.128;4.220;2022-12-01T16:33:00;9.40;89.30
41324;DHT22;27073;51.128;4.220;2022-12-01T16:35:29;9.40;89.30
41324;DHT22;27073;51.128;4.220;2022-12-01T16:37:56;9.10;89.30
41324;DHT22;27073;51.128;4.220;2022-12-01T16:40:23;9.20;90.30
41324;DHT22;27073;51.128;4.220;2022-12-01T16:42:49;9.20;90.00
41324;DHT22;27073;51.128;4.220;2022-12-01T16:45:16;9.30;89.50
41324;DHT22;27073;51.128;4.220;2022-12-01T16:47:44;9.30;90.00
41324;DHT22;27073;51.128;4.220;2022-12-01T16:50:14;9.30;90.10
41324;DHT22;27073;51.128;4.220;2022-12-01T16:52:41;9.30;90.50
41324;DHT22;27073;51.128;4.220;2022-12-01T16:55:21;9.30;90.40
41324;DHT22;27073;51.128;4.220;2022-12-01T16:57:48;9.30;90.40
41324;DHT22;27073;51.128;4.220;2022-12-01T17:00:14;9.40;89.80
41324;DHT22;27073;51.128;4.220;2022-12-01T17:02:40;9.30;90.30
41324;DHT22;27073;51.128;4.220;2022-12-01T17:05:06;9.20;90.10
41324;DHT22;27073;51.128;4.220;2022-12-01T17:07:32;9.20;85.70
41324;DHT22;27073;51.128;4.220;2022-12-01T17:09:57;9.20;86.80
41324;DHT22;27073;51.128;4.220;2022-12-01T17:12:23;9.20;82.40
41324;DHT22;27073;51.128;4.220;2022-12-01T17:14:51;9.10;85.00
41324;DHT22;27073;51.128;4.220;2022-12-01T17:17:16;9.10;83.90
41324;DHT22;27073;51.128;4.220;2022-12-01T17:19:42;9.30;83.40
41324;DHT22;27073;51.128;4.220;2022-12-01T17:22:08;9.30;82.60
41324;DHT22;27073;51.128;4.220;2022-12-01T17:24:33;9.40;82.50
41324;DHT22;27073;51.128;4.220;2022-12-01T17:26:59;9.40;82.10
41324;DHT22;27073;51.128;4.220;2022-12-01T17:29:25;9.40;81.90
41324;DHT22;27073;51.128;4.220;2022-12-01T17:31:51;9.50;80.10
41324;DHT22;27073;51.128;4.220;2022-12-01T17:34:16;9.60;79.30
41324;DHT22;27073;51.128;4.220;2022-12-01T17:36:42;9.60;79.80
41324;DHT22;27073;51.128;4.220;2022-12-01T17:39:08;9.60;79.40
41324;DHT22;27073;51.128;4.220;2022-12-01T17:41:34;9.60;79.90
41324;DHT22;27073;51.128;4.220;2022-12-01T17:44:02;9.60;80.70
41324;DHT22;27073;51.128;4.220;2022-12-01T17:46:27;9.60;79.80